Overview Statistics Trail Chart Weather Telemetry Raw packets
 

This is the latest recevied weather packets stored in our database for station/object KD7AWQ. If no packets are shown the sender has not sent any weather packets the latest 10 day(s).

<< 53 54 55 56 57 58 59 >>
Time Temp. Humidity Pressure Rain* Wind** Luminosity Snow
1788059598 30.56° C 28% 1186.3 hPa 0 mm - 0 W/m² -
1788059293 31.67° C 26% 1186.2 hPa 0 mm - 0 W/m² -
1788058989 31.11° C 24% 1185.8 hPa 0 mm - 0 W/m² -
1788058688 31.11° C 24% 1186.2 hPa 0 mm - 0 W/m² -
1788058403 31.11° C 25% 1186.1 hPa 0 mm - 0 W/m² -
1788058087 30.56° C 25% 1185.7 hPa 0 mm - 0 W/m² -
1788057782 30.56° C 26% 1185.6 hPa 0 mm - 0 W/m² -
1788057480 30.56° C 27% 1185.4 hPa 0 mm - 0 W/m² -
1788057179 30.56° C 27% 1185 hPa 0 mm - 0 W/m² -
1788056879 30.56° C 29% 1185.2 hPa 0 mm - 0 W/m² -
1788056574 30° C 31% 1185.2 hPa 0 mm - 0 W/m² -
1788056274 30.56° C 31% 1185 hPa 0 mm - 0 W/m² -
1788055969 30° C 32% 1184.9 hPa 0 mm - 0 W/m² -
1788055668 30° C 33% 1184.7 hPa 0 mm - 0 W/m² -
1788055364 29.44° C 34% 1185 hPa 0 mm - 0 W/m² -
1788055063 28.89° C 36% 1184.9 hPa 0 mm - 0 W/m² -
1788054759 28.89° C 37% 1184.8 hPa 0 mm - 0 W/m² -
1788054454 28.89° C 36% 1185.2 hPa 0 mm - 0 W/m² -
1788054150 28.89° C 36% 1185.7 hPa 0 mm - 0 W/m² -
1788053846 30° C 34% 1185.5 hPa 0 mm - 1 W/m² -
1788053541 30° C 32% 1185.7 hPa 0 mm - 1 W/m² -
1788053241 30.56° C 32% 1185.4 hPa 0 mm - 2 W/m² -
1788052937 30.56° C 30% 1185.5 hPa 0 mm - 2 W/m² -
1788052633 30.56° C 31% 1185.5 hPa 0 mm - 3 W/m² -
1788052327 30° C 34% 1185.3 hPa 0 mm - 3 W/m² -

* Rain latest hour (hover to see other rain measurements)
** Current wind speed in m/s (hover to see current wind gust speed)